createdAt,value
2022-12-26T00:01:00.575Z,76.00
2022-12-26T00:03:27.726Z,76.03
2022-12-26T00:05:54.781Z,76.34
2022-12-26T00:08:21.810Z,76.39
2022-12-26T00:10:48.782Z,76.14
2022-12-26T00:13:38.500Z,75.98
2022-12-26T00:16:11.521Z,75.76
2022-12-26T00:18:39.472Z,75.81
2022-12-26T00:21:07.612Z,75.69
2022-12-26T00:23:35.263Z,75.73
2022-12-26T00:26:14.112Z,75.53
2022-12-26T00:28:41.682Z,75.21
2022-12-26T00:31:15.160Z,74.94
2022-12-26T00:33:42.548Z,75.28
2022-12-26T00:36:18.346Z,75.37
2022-12-26T00:38:46.183Z,75.38
2022-12-26T00:41:14.089Z,75.70
2022-12-26T00:43:41.512Z,75.95
2022-12-26T00:46:09.175Z,75.96
2022-12-26T00:48:36.534Z,75.98
2022-12-26T00:51:04.385Z,75.88
2022-12-26T00:53:31.705Z,76.00
2022-12-26T00:55:58.833Z,76.21
2022-12-26T00:58:26.243Z,76.17
2022-12-26T01:00:53.905Z,76.38
2022-12-26T01:03:21.223Z,76.67
2022-12-26T01:05:50.174Z,76.77
2022-12-26T01:08:21.059Z,77.30
2022-12-26T01:10:51.118Z,77.41
2022-12-26T01:13:18.079Z,77.69
2022-12-26T01:15:52.198Z,77.74
2022-12-26T01:18:20.363Z,77.77
2022-12-26T01:20:48.120Z,77.72
2022-12-26T01:23:16.303Z,78.16
2022-12-26T01:26:16.832Z,78.40
2022-12-26T01:28:30.660Z,78.24
2022-12-26T01:31:02.161Z,78.51
2022-12-26T01:33:29.125Z,78.63
2022-12-26T01:35:57.157Z,78.49
2022-12-26T01:38:24.331Z,78.80
2022-12-26T01:41:18.201Z,78.91
2022-12-26T01:44:01.838Z,78.87
2022-12-26T01:46:33.053Z,78.71
2022-12-26T01:49:05.098Z,78.92
2022-12-26T01:51:34.358Z,79.03
2022-12-26T01:54:39.040Z,79.19
2022-12-26T01:56:51.623Z,78.92
2022-12-26T01:59:22.260Z,79.06
2022-12-26T02:01:51.166Z,79.16
2022-12-26T02:04:44.193Z,79.37
2022-12-26T02:07:11.380Z,79.46
2022-12-26T02:09:38.501Z,79.23
2022-12-26T02:12:34.529Z,79.53
2022-12-26T02:15:18.168Z,79.67
2022-12-26T02:17:47.053Z,79.72
2022-12-26T02:20:24.345Z,79.75
2022-12-26T02:23:35.326Z,79.61
2022-12-26T02:26:21.240Z,79.74
2022-12-26T02:29:06.386Z,79.48
2022-12-26T02:31:41.876Z,79.75
2022-12-26T02:34:21.693Z,79.43
2022-12-26T02:37:09.740Z,79.51
2022-12-26T02:40:08.812Z,79.73
2022-12-26T02:42:58.294Z,79.87
2022-12-26T02:45:53.038Z,79.85
2022-12-26T02:48:31.307Z,80.23
2022-12-26T02:51:30.408Z,80.07
2022-12-26T02:54:54.688Z,80.08
2022-12-26T02:57:43.703Z,80.10
2022-12-26T03:00:35.298Z,79.84
2022-12-26T03:03:31.995Z,80.03
2022-12-26T03:06:39.287Z,80.18
2022-12-26T03:09:27.054Z,80.02
2022-12-26T03:12:16.287Z,80.28
2022-12-26T03:14:48.395Z,80.11
2022-12-26T03:17:38.754Z,79.84
2022-12-26T03:20:10.863Z,79.51
2022-12-26T03:22:50.245Z,79.01
2022-12-26T03:25:50.027Z,78.74
2022-12-26T03:28:17.460Z,78.89
2022-12-26T03:30:50.664Z,78.74
2022-12-26T03:33:42.354Z,78.79
2022-12-26T03:36:41.826Z,78.53
2022-12-26T03:39:48.126Z,78.16
2022-12-26T03:42:52.697Z,77.78
2022-12-26T03:45:59.501Z,77.41
2022-12-26T03:48:59.302Z,77.29
2022-12-26T03:52:03.165Z,77.47
2022-12-26T03:54:59.185Z,77.40
2022-12-26T03:57:50.753Z,77.35
2022-12-26T04:00:37.147Z,77.44
2022-12-26T04:03:29.597Z,77.19
2022-12-26T04:06:19.535Z,77.13
2022-12-26T04:09:19.265Z,77.19
2022-12-26T04:12:05.244Z,76.82
2022-12-26T04:15:12.972Z,77.09
2022-12-26T04:18:15.865Z,77.29
2022-12-26T04:21:33.515Z,77.14
2022-12-26T04:24:24.012Z,76.63
2022-12-26T04:27:13.261Z,76.84
2022-12-26T04:29:59.038Z,76.88
2022-12-26T04:32:50.587Z,77.00
2022-12-26T04:35:38.215Z,77.13
2022-12-26T04:38:24.078Z,77.07
2022-12-26T04:41:14.965Z,77.29
2022-12-26T04:44:01.002Z,76.97
2022-12-26T04:46:28.998Z,77.14
2022-12-26T04:49:15.276Z,77.07
2022-12-26T04:51:42.369Z,77.04
2022-12-26T04:54:09.414Z,77.11
2022-12-26T04:56:36.349Z,77.21
2022-12-26T04:59:03.718Z,76.99
2022-12-26T05:01:49.913Z,76.91
2022-12-26T05:04:39.873Z,76.94
2022-12-26T05:07:32.782Z,77.06
2022-12-26T05:10:00.001Z,76.61
2022-12-26T05:12:27.132Z,76.85
2022-12-26T05:14:54.718Z,76.85
2022-12-26T05:17:40.096Z,76.72
2022-12-26T05:20:27.324Z,76.88
2022-12-26T05:23:23.677Z,76.82
2022-12-26T05:26:09.147Z,76.55
2022-12-26T05:28:42.317Z,76.45
2022-12-26T05:31:15.248Z,76.41
2022-12-26T05:34:01.805Z,76.58
2022-12-26T05:36:47.929Z,76.59
2022-12-26T05:39:15.253Z,76.81
2022-12-26T05:41:42.798Z,76.95
2022-12-26T05:44:10.636Z,77.12
2022-12-26T05:46:38.627Z,77.27
2022-12-26T05:49:06.263Z,77.38
2022-12-26T05:51:34.156Z,77.04
2022-12-26T05:54:01.537Z,77.04
2022-12-26T05:56:28.805Z,76.63
2022-12-26T05:58:57.612Z,76.83
2022-12-26T06:01:25.453Z,76.71
2022-12-26T06:03:55.010Z,76.68
2022-12-26T06:06:23.050Z,76.81
2022-12-26T06:08:51.818Z,76.87
2022-12-26T06:11:20.270Z,76.81
2022-12-26T06:13:47.309Z,76.66
2022-12-26T06:16:17.002Z,76.51
2022-12-26T06:21:30.745Z,76.14
2022-12-26T06:23:57.971Z,76.20
2022-12-26T06:26:25.061Z,76.42
2022-12-26T06:28:52.228Z,76.51
2022-12-26T06:31:22.462Z,76.53
2022-12-26T06:33:51.808Z,76.69
2022-12-26T06:36:21.297Z,76.58
2022-12-26T06:38:49.171Z,76.65
2022-12-26T06:41:18.578Z,76.53
2022-12-26T06:43:45.722Z,76.31
2022-12-26T06:46:21.055Z,76.00
2022-12-26T06:48:48.422Z,76.11
2022-12-26T06:51:35.651Z,75.73
2022-12-26T06:54:03.132Z,75.71
2022-12-26T06:56:32.061Z,75.34
2022-12-26T06:59:01.381Z,75.44
2022-12-26T07:01:30.772Z,75.22
2022-12-26T07:03:58.732Z,75.04
2022-12-26T07:06:37.818Z,75.16
2022-12-26T07:09:13.252Z,75.16
2022-12-26T07:11:42.815Z,74.74
2022-12-26T07:14:10.234Z,74.80
2022-12-26T07:16:38.794Z,74.69
2022-12-26T07:19:06.223Z,74.76
2022-12-26T07:21:40.386Z,74.32
2022-12-26T07:24:19.963Z,74.40
2022-12-26T07:26:50.918Z,74.19
2022-12-26T07:29:18.500Z,74.05
2022-12-26T07:31:46.202Z,74.04
2022-12-26T07:34:13.553Z,74.05
2022-12-26T07:36:41.401Z,73.29
2022-12-26T07:39:14.199Z,73.32
2022-12-26T07:42:00.995Z,73.30
2022-12-26T07:44:30.914Z,73.20
2022-12-26T07:46:58.349Z,72.87
2022-12-26T07:49:26.024Z,72.89
2022-12-26T07:51:53.296Z,72.62
2022-12-26T07:54:20.666Z,72.53
2022-12-26T07:56:47.839Z,72.42
2022-12-26T07:59:16.729Z,72.39
2022-12-26T08:01:44.541Z,72.43
2022-12-26T08:04:15.409Z,72.22
2022-12-26T08:06:42.610Z,72.28
2022-12-26T08:09:17.336Z,71.90
2022-12-26T08:12:02.201Z,72.16
2022-12-26T08:14:29.705Z,72.20
2022-12-26T08:17:11.944Z,71.89
2022-12-26T08:19:39.068Z,71.73
2022-12-26T08:22:06.676Z,71.55
2022-12-26T08:24:33.679Z,71.97
2022-12-26T08:27:00.743Z,71.97
2022-12-26T08:29:28.716Z,71.71
2022-12-26T08:31:55.992Z,71.38
2022-12-26T08:34:23.385Z,71.25
2022-12-26T08:36:53.977Z,71.29
2022-12-26T08:39:21.041Z,71.22
2022-12-26T08:41:48.163Z,71.16
2022-12-26T08:44:27.278Z,71.02
2022-12-26T08:46:56.097Z,71.17
2022-12-26T08:49:23.179Z,71.06
2022-12-26T08:51:50.256Z,71.00
2022-12-26T08:54:20.874Z,71.06
2022-12-26T08:56:50.636Z,70.56
2022-12-26T08:59:18.886Z,70.91
2022-12-26T09:01:46.128Z,70.63
2022-12-26T09:04:13.477Z,70.58
2022-12-26T09:06:40.889Z,70.52
2022-12-26T09:09:13.529Z,70.13
2022-12-26T09:11:41.651Z,70.23
2022-12-26T09:14:12.987Z,70.25
2022-12-26T09:16:49.368Z,70.24
2022-12-26T09:19:19.197Z,70.03
2022-12-26T09:21:48.063Z,70.02
2022-12-26T09:24:17.800Z,70.29
2022-12-26T09:26:51.481Z,69.88
2022-12-26T09:29:18.614Z,69.79
2022-12-26T09:31:45.712Z,69.81
2022-12-26T09:34:12.794Z,69.19
2022-12-26T09:36:40.003Z,69.47
2022-12-26T09:39:11.853Z,69.73
2022-12-26T09:41:57.366Z,69.84
2022-12-26T09:44:26.173Z,69.69
2022-12-26T09:47:11.785Z,69.69
2022-12-26T09:49:51.308Z,69.96
2022-12-26T09:52:22.984Z,70.07
2022-12-26T09:55:25.244Z,70.36
2022-12-26T09:57:57.804Z,70.02
2022-12-26T10:00:31.520Z,69.95
2022-12-26T10:02:59.428Z,69.97
2022-12-26T10:05:35.242Z,69.88
2022-12-26T10:08:22.609Z,69.65
2022-12-26T10:11:12.953Z,70.12
2022-12-26T10:13:52.839Z,70.47
2022-12-26T10:16:51.155Z,70.59
2022-12-26T10:19:32.827Z,70.75
2022-12-26T10:22:06.058Z,70.81
2022-12-26T10:24:35.695Z,70.87
2022-12-26T10:27:12.607Z,70.45
2022-12-26T10:29:42.354Z,70.26
2022-12-26T10:32:15.245Z,70.36
2022-12-26T10:34:45.077Z,70.51
2022-12-26T10:37:18.432Z,70.79
2022-12-26T10:39:51.403Z,70.85
2022-12-26T10:42:36.362Z,70.68
2022-12-26T10:45:12.791Z,71.04
2022-12-26T10:47:41.559Z,71.13
2022-12-26T10:50:27.625Z,71.24
2022-12-26T10:52:56.874Z,70.51
2022-12-26T10:55:31.424Z,70.76
2022-12-26T10:57:59.811Z,70.65
2022-12-26T11:00:28.423Z,70.77
2022-12-26T11:03:20.493Z,71.00
2022-12-26T11:06:10.417Z,70.70
2022-12-26T11:08:49.722Z,70.15
2022-12-26T11:11:27.624Z,69.70
2022-12-26T11:14:01.603Z,70.05
2022-12-26T11:16:32.583Z,70.38
2022-12-26T11:18:59.908Z,70.38
2022-12-26T11:21:29.722Z,70.40
2022-12-26T11:24:09.247Z,70.55
2022-12-26T11:26:37.556Z,70.73
2022-12-26T11:29:18.270Z,70.77
2022-12-26T11:31:56.816Z,70.39
2022-12-26T11:34:37.895Z,70.31
2022-12-26T11:37:06.276Z,70.36
2022-12-26T11:39:36.509Z,70.52
2022-12-26T11:42:18.899Z,70.66
2022-12-26T11:44:55.186Z,70.74
2022-12-26T11:47:29.600Z,71.30
2022-12-26T11:50:01.101Z,70.90
2022-12-26T11:52:37.806Z,70.87
2022-12-26T11:55:25.103Z,70.73
2022-12-26T11:57:58.613Z,70.90
2022-12-26T12:00:27.271Z,71.00
2022-12-26T12:02:54.858Z,71.00
2022-12-26T12:05:40.798Z,71.05
2022-12-26T12:08:26.383Z,71.10
2022-12-26T12:11:25.496Z,71.62
2022-12-26T12:14:29.343Z,71.94
2022-12-26T12:17:04.771Z,71.79
2022-12-26T12:19:34.376Z,71.80
2022-12-26T12:22:26.553Z,72.17
2022-12-26T12:25:17.222Z,72.26
2022-12-26T12:27:53.622Z,72.42
2022-12-26T12:30:28.732Z,72.54
2022-12-26T12:33:22.992Z,72.74
2022-12-26T12:36:02.038Z,72.29
2022-12-26T12:38:51.481Z,71.99
2022-12-26T12:41:34.804Z,72.27
2022-12-26T12:44:19.788Z,72.34
2022-12-26T12:47:21.192Z,72.47
2022-12-26T12:49:59.883Z,72.35
2022-12-26T12:53:09.769Z,72.58
2022-12-26T12:55:50.231Z,72.46
2022-12-26T12:58:42.185Z,72.49
2022-12-26T13:01:19.672Z,72.59
2022-12-26T13:03:55.849Z,73.10
2022-12-26T13:06:26.846Z,73.14
2022-12-26T13:09:19.642Z,73.19
2022-12-26T13:12:02.235Z,73.33
2022-12-26T13:14:47.022Z,73.32
2022-12-26T13:17:33.325Z,73.50
2022-12-26T13:20:15.896Z,73.62
2022-12-26T13:23:15.781Z,73.88
2022-12-26T13:25:48.336Z,73.97
2022-12-26T13:28:26.611Z,73.81
2022-12-26T13:30:55.734Z,73.92
2022-12-26T13:33:23.318Z,73.57
2022-12-26T13:36:00.393Z,73.58
2022-12-26T13:38:58.718Z,73.35
2022-12-26T13:41:44.932Z,73.58
2022-12-26T13:47:03.086Z,73.60
2022-12-26T13:49:36.466Z,73.74
2022-12-26T13:52:22.812Z,73.76
2022-12-26T13:54:54.578Z,73.86
2022-12-26T13:57:50.287Z,74.26
2022-12-26T14:00:17.171Z,74.14
2022-12-26T14:03:29.215Z,74.34
2022-12-26T14:12:43.740Z,74.35
2022-12-26T14:15:35.717Z,74.50
2022-12-26T14:21:18.871Z,74.67
2022-12-26T14:23:56.321Z,74.44
2022-12-26T14:26:44.321Z,74.14
2022-12-26T14:29:16.422Z,74.24
2022-12-26T14:31:44.648Z,74.17
2022-12-26T14:34:11.603Z,74.42
2022-12-26T14:36:45.277Z,74.48
2022-12-26T14:39:32.742Z,74.35
2022-12-26T14:42:28.170Z,74.51
2022-12-26T14:44:57.618Z,74.59
2022-12-26T14:47:47.964Z,74.51
2022-12-26T14:50:35.661Z,74.60
2022-12-26T14:53:30.208Z,74.53
2022-12-26T14:55:57.707Z,74.62
2022-12-26T14:58:30.558Z,74.37
2022-12-26T15:01:10.619Z,74.29
2022-12-26T15:03:50.483Z,74.60
2022-12-26T15:06:29.548Z,74.25
2022-12-26T15:09:24.495Z,74.43
2022-12-26T15:12:13.368Z,74.50
2022-12-26T15:15:02.040Z,74.57
2022-12-26T15:17:51.808Z,74.48
2022-12-26T15:20:31.206Z,74.53
2022-12-26T15:23:44.115Z,74.48
2022-12-26T15:26:29.963Z,74.38
2022-12-26T15:29:09.213Z,74.57
2022-12-26T15:31:38.527Z,74.52
2022-12-26T15:34:11.761Z,74.56
2022-12-26T15:36:58.539Z,74.77
2022-12-26T15:39:49.337Z,74.76
2022-12-26T15:45:30.591Z,74.55
2022-12-26T15:48:07.800Z,74.92
2022-12-26T15:50:47.166Z,74.99
2022-12-26T15:53:45.759Z,74.04
2022-12-26T15:56:31.249Z,74.42
2022-12-26T15:59:13.073Z,74.42
2022-12-26T16:01:42.462Z,74.66
2022-12-26T16:04:26.619Z,74.58
2022-12-26T16:07:30.556Z,74.76
2022-12-26T16:09:58.453Z,74.67
2022-12-26T16:12:29.462Z,74.79
2022-12-26T16:15:11.744Z,74.58
2022-12-26T16:17:39.883Z,74.57
2022-12-26T16:20:43.684Z,74.51
2022-12-26T16:23:17.319Z,74.74
2022-12-26T16:25:55.850Z,74.53
2022-12-26T16:28:30.877Z,74.36
2022-12-26T16:30:58.790Z,74.57
2022-12-26T16:33:28.693Z,74.13
2022-12-26T16:36:00.859Z,74.34
2022-12-26T16:38:30.983Z,74.62
2022-12-26T16:41:00.593Z,74.40
2022-12-26T16:43:30.810Z,74.51
2022-12-26T16:46:04.966Z,74.59
2022-12-26T16:48:33.614Z,74.47
2022-12-26T16:51:08.063Z,74.48
2022-12-26T16:53:35.247Z,74.74
2022-12-26T16:56:21.283Z,74.94
2022-12-26T16:58:51.492Z,74.92
2022-12-26T17:01:20.488Z,74.88
2022-12-26T17:03:53.929Z,74.84
2022-12-26T17:06:30.436Z,75.01
2022-12-26T17:08:59.264Z,75.04
2022-12-26T17:11:29.503Z,75.26
2022-12-26T17:13:57.123Z,75.32
2022-12-26T17:16:26.615Z,75.63
2022-12-26T17:18:56.218Z,75.74
2022-12-26T17:21:34.476Z,75.64
2022-12-26T17:24:26.417Z,75.70
2022-12-26T17:27:09.078Z,75.45
2022-12-26T17:29:37.092Z,75.44
2022-12-26T17:32:13.659Z,75.64
2022-12-26T17:34:45.950Z,75.45
2022-12-26T17:37:25.421Z,75.60
2022-12-26T17:40:08.561Z,75.63
2022-12-26T17:42:45.778Z,75.41
2022-12-26T17:45:18.245Z,75.39
2022-12-26T17:47:45.918Z,75.45
2022-12-26T17:50:15.129Z,75.36
2022-12-26T17:52:47.645Z,75.63
2022-12-26T17:55:30.401Z,75.07
2022-12-26T18:03:26.857Z,74.80
2022-12-26T18:06:00.168Z,74.86
2022-12-26T18:08:34.920Z,75.07
2022-12-26T18:11:04.909Z,75.10
2022-12-26T18:13:33.205Z,74.96
2022-12-26T18:16:00.813Z,75.15
2022-12-26T18:18:37.621Z,75.10
2022-12-26T18:21:07.870Z,75.07
2022-12-26T18:23:35.301Z,75.02
2022-12-26T18:26:08.381Z,75.02
2022-12-26T18:28:37.288Z,75.18
2022-12-26T18:31:05.165Z,74.91
2022-12-26T18:33:32.259Z,75.10
2022-12-26T18:36:04.325Z,75.09
2022-12-26T18:38:34.776Z,75.00
2022-12-26T18:41:02.961Z,74.80
2022-12-26T18:43:29.977Z,75.01
2022-12-26T18:45:58.214Z,75.27
2022-12-26T18:48:33.115Z,75.44
2022-12-26T18:51:06.014Z,75.61
2022-12-26T18:56:24.438Z,75.22
2022-12-26T18:58:59.868Z,75.82
2022-12-26T19:01:27.253Z,75.63
2022-12-26T19:03:55.180Z,75.80
2022-12-26T19:06:28.328Z,75.94
2022-12-26T19:08:56.025Z,75.84
2022-12-26T19:11:24.111Z,75.93
2022-12-26T19:13:51.239Z,75.89
2022-12-26T19:16:18.494Z,75.59
2022-12-26T19:18:45.664Z,75.93
2022-12-26T19:21:18.562Z,76.17
2022-12-26T19:23:48.895Z,75.91
2022-12-26T19:26:19.986Z,76.17
2022-12-26T19:28:54.585Z,75.92
2022-12-26T19:31:22.723Z,76.14
2022-12-26T19:33:50.780Z,76.21
2022-12-26T19:36:19.750Z,76.49
2022-12-26T19:41:27.943Z,76.43
2022-12-26T19:43:58.940Z,76.42
2022-12-26T19:46:34.475Z,76.58
2022-12-26T19:49:02.207Z,76.64
2022-12-26T19:54:13.357Z,76.62
2022-12-26T19:56:45.285Z,76.62
2022-12-26T19:59:19.468Z,76.74
2022-12-26T20:01:50.036Z,76.61
2022-12-26T20:04:37.603Z,76.30
2022-12-26T20:10:05.318Z,76.88
2022-12-26T20:15:16.559Z,76.98
2022-12-26T20:17:49.065Z,77.00
2022-12-26T20:22:58.230Z,77.16
2022-12-26T20:25:26.025Z,76.74
2022-12-26T20:27:54.620Z,76.96
2022-12-26T20:30:21.816Z,76.68
2022-12-26T20:32:51.842Z,76.65
2022-12-26T20:35:22.422Z,76.78
2022-12-26T20:37:50.819Z,76.87
2022-12-26T20:40:17.999Z,76.97
2022-12-26T20:42:58.913Z,76.99
2022-12-26T20:48:09.507Z,77.47
2022-12-26T20:50:36.527Z,77.48
2022-12-26T20:53:03.642Z,77.30
2022-12-26T20:55:30.959Z,77.52
2022-12-26T20:57:58.417Z,77.53
2022-12-26T21:00:25.444Z,77.46
2022-12-26T21:02:53.482Z,77.64
2022-12-26T21:05:20.663Z,77.37
2022-12-26T21:07:47.775Z,77.08
2022-12-26T21:10:16.424Z,76.92
2022-12-26T21:12:43.596Z,76.88
2022-12-26T21:15:10.778Z,76.93
2022-12-26T21:17:43.058Z,76.87
2022-12-26T21:20:15.847Z,76.78
2022-12-26T21:22:43.047Z,76.82
2022-12-26T21:25:10.063Z,76.63
2022-12-26T21:27:41.529Z,76.46
2022-12-26T21:30:10.524Z,76.72
2022-12-26T21:32:37.546Z,76.51
2022-12-26T21:35:06.604Z,76.56
2022-12-26T21:37:51.695Z,76.64
2022-12-26T21:40:22.125Z,76.66
2022-12-26T21:42:49.266Z,76.83
2022-12-26T21:45:16.336Z,76.61
2022-12-26T21:47:43.325Z,76.63
2022-12-26T21:50:10.537Z,76.78
2022-12-26T21:52:38.829Z,76.75
2022-12-26T21:55:24.792Z,76.41
2022-12-26T21:57:52.225Z,76.43
2022-12-26T22:00:22.412Z,76.65
2022-12-26T22:03:08.306Z,76.63
2022-12-26T22:05:39.416Z,76.62
2022-12-26T22:08:09.657Z,76.46
2022-12-26T22:10:56.062Z,76.90
2022-12-26T22:13:26.907Z,76.85
2022-12-26T22:16:04.698Z,76.63
2022-12-26T22:18:33.120Z,76.79
2022-12-26T22:21:13.340Z,76.93
2022-12-26T22:23:41.277Z,77.23
2022-12-26T22:26:10.970Z,77.14
2022-12-26T22:28:38.703Z,77.15
2022-12-26T22:31:06.379Z,77.17
2022-12-26T22:33:33.860Z,77.17
2022-12-26T22:36:08.095Z,77.29
2022-12-26T22:38:36.255Z,77.10
2022-12-26T22:41:03.922Z,77.08
2022-12-26T22:43:31.812Z,77.23
2022-12-26T22:45:59.089Z,77.41
2022-12-26T22:48:26.320Z,77.61
2022-12-26T22:50:55.112Z,77.40
2022-12-26T22:53:25.802Z,77.65
2022-12-26T22:56:04.513Z,77.77
2022-12-26T22:58:32.521Z,77.89
2022-12-26T23:01:00.044Z,77.87
2022-12-26T23:03:27.862Z,77.76
2022-12-26T23:05:55.498Z,77.90
2022-12-26T23:08:25.843Z,77.71
2022-12-26T23:10:57.977Z,77.69
2022-12-26T23:13:25.792Z,77.96
2022-12-26T23:15:55.159Z,77.80
2022-12-26T23:18:49.833Z,78.03
2022-12-26T23:21:42.149Z,78.11
2022-12-26T23:24:30.296Z,78.13
2022-12-26T23:27:27.227Z,78.18
2022-12-26T23:30:13.391Z,78.29
2022-12-26T23:32:42.489Z,78.48
2022-12-26T23:35:10.696Z,78.38
2022-12-26T23:37:39.015Z,78.42
2022-12-26T23:40:07.232Z,78.44
2022-12-26T23:42:34.230Z,78.74
2022-12-26T23:45:01.217Z,78.67
2022-12-26T23:47:30.604Z,78.82
2022-12-26T23:49:57.538Z,78.95
2022-12-26T23:52:30.015Z,78.77
2022-12-26T23:54:58.091Z,78.95
2022-12-26T23:57:25.058Z,79.11
2022-12-26T23:59:52.313Z,79.03
